createdAt,value
2022-11-05T00:01:12.848Z,99785.56
2022-11-05T00:04:00.054Z,99810.75
2022-11-05T00:06:45.478Z,99807.38
2022-11-05T00:09:31.342Z,99810.91
2022-11-05T00:12:18.360Z,99825.19
2022-11-05T00:15:05.988Z,99819.81
2022-11-05T00:17:34.700Z,99834.22
2022-11-05T00:20:04.832Z,99832.56
2022-11-05T00:22:50.256Z,99841.63
2022-11-05T00:25:19.101Z,99821.16
2022-11-05T00:27:51.331Z,99847.00
2022-11-05T00:30:21.504Z,99850.34
2022-11-05T00:32:51.292Z,99854.03
2022-11-05T00:35:22.809Z,99848.66
2022-11-05T00:37:50.857Z,99868.16
2022-11-05T00:40:19.179Z,99852.03
2022-11-05T00:43:04.803Z,99848.34
2022-11-05T00:45:33.316Z,99847.66
2022-11-05T00:48:18.480Z,99846.66
2022-11-05T00:50:47.860Z,99854.38
2022-11-05T00:53:15.803Z,99857.06
2022-11-05T00:55:45.287Z,99855.38
2022-11-05T00:58:15.234Z,99860.75
2022-11-05T01:00:45.030Z,99867.81
2022-11-05T01:03:15.498Z,99869.47
2022-11-05T01:05:45.301Z,99861.44
2022-11-05T01:08:16.276Z,99872.16
2022-11-05T01:10:45.706Z,99870.34
2022-11-05T01:13:15.173Z,99877.38
2022-11-05T01:15:43.669Z,99885.94
2022-11-05T01:18:12.151Z,99883.25
2022-11-05T01:20:40.177Z,99883.25
2022-11-05T01:23:13.266Z,99887.63
2022-11-05T01:25:43.009Z,99894.16
2022-11-05T01:28:11.449Z,99894.00
2022-11-05T01:30:39.862Z,99891.47
2022-11-05T01:33:08.196Z,99893.16
2022-11-05T01:35:36.334Z,99896.00
2022-11-05T01:38:04.399Z,99888.97
2022-11-05T01:40:32.543Z,99885.25
2022-11-05T01:43:01.852Z,99885.94
2022-11-05T01:45:30.362Z,99876.53
2022-11-05T01:48:10.337Z,99885.25
2022-11-05T01:50:43.576Z,99883.25
2022-11-05T01:53:16.972Z,99874.53
2022-11-05T01:55:49.185Z,99879.91
2022-11-05T01:58:22.677Z,99874.84
2022-11-05T02:00:50.933Z,99883.94
2022-11-05T02:03:20.403Z,99884.56
2022-11-05T02:05:51.505Z,99885.59
2022-11-05T02:08:27.276Z,99883.94
2022-11-05T02:10:55.501Z,99876.53
2022-11-05T02:13:24.891Z,99881.88
2022-11-05T02:16:02.528Z,99886.94
2022-11-05T02:18:42.357Z,99893.31
2022-11-05T02:21:35.187Z,99892.63
2022-11-05T02:24:31.616Z,99885.91
2022-11-05T02:27:12.874Z,99900.84
2022-11-05T02:30:13.546Z,99898.69
2022-11-05T02:33:07.936Z,99893.47
2022-11-05T02:35:54.997Z,99890.63
2022-11-05T02:38:36.408Z,99899.38
2022-11-05T02:41:09.850Z,99893.66
2022-11-05T02:43:46.765Z,99891.28
2022-11-05T02:46:26.893Z,99887.25
2022-11-05T02:49:01.322Z,99891.81
2022-11-05T02:51:36.425Z,99887.59
2022-11-05T02:54:14.499Z,99891.28
2022-11-05T02:56:46.485Z,99893.28
2022-11-05T02:59:15.231Z,99897.69
2022-11-05T03:01:45.104Z,99900.03
2022-11-05T03:04:17.730Z,99896.34
2022-11-05T03:07:08.553Z,99909.59
2022-11-05T03:09:51.775Z,99905.41
2022-11-05T03:12:28.203Z,99900.34
2022-11-05T03:15:05.271Z,99895.00
2022-11-05T03:17:40.628Z,99894.66
2022-11-05T03:20:19.156Z,99895.47
2022-11-05T03:22:52.855Z,99901.69
2022-11-05T03:25:23.975Z,99889.28
2022-11-05T03:27:58.540Z,99890.97
2022-11-05T03:30:27.221Z,99894.34
2022-11-05T03:33:01.946Z,99884.75
2022-11-05T03:35:37.311Z,99896.34
2022-11-05T03:38:09.249Z,99881.88
2022-11-05T03:40:39.975Z,99885.59
2022-11-05T03:43:09.826Z,99891.28
2022-11-05T03:45:42.969Z,99888.59
2022-11-05T03:48:13.849Z,99893.66
2022-11-05T03:50:50.675Z,99896.50
2022-11-05T03:53:23.676Z,99897.50
2022-11-05T03:55:59.480Z,99902.03
2022-11-05T03:58:28.365Z,99892.97
2022-11-05T04:00:56.409Z,99910.78
2022-11-05T04:03:24.419Z,99908.41
2022-11-05T04:06:12.293Z,99912.78
2022-11-05T04:08:59.015Z,99925.50
2022-11-05T04:11:44.199Z,99914.75
2022-11-05T04:14:12.144Z,99913.94
2022-11-05T04:16:57.626Z,99919.16
2022-11-05T04:19:39.406Z,99918.47
2022-11-05T04:22:40.789Z,99916.47
2022-11-05T04:25:09.849Z,99908.75
2022-11-05T04:27:38.048Z,99921.50
2022-11-05T04:30:21.869Z,99921.84
2022-11-05T04:33:01.097Z,99928.03
2022-11-05T04:35:30.320Z,99925.88
2022-11-05T04:37:59.669Z,99934.41
2022-11-05T04:40:29.114Z,99936.25
2022-11-05T04:42:57.428Z,99930.88
2022-11-05T04:45:26.116Z,99928.03
2022-11-05T04:47:54.109Z,99941.59
2022-11-05T04:50:22.447Z,99946.97
2022-11-05T04:52:50.431Z,99942.63
2022-11-05T04:55:20.099Z,99942.47
2022-11-05T04:57:49.269Z,99948.69
2022-11-05T05:00:18.416Z,99939.94
2022-11-05T05:02:46.403Z,99912.53
2022-11-05T05:05:15.227Z,99946.97
2022-11-05T05:07:43.618Z,99941.59
2022-11-05T05:10:12.422Z,99945.31
2022-11-05T05:12:41.826Z,99939.94
2022-11-05T05:15:10.067Z,99946.16
2022-11-05T05:17:38.051Z,99939.94
2022-11-05T05:20:23.747Z,99932.91
2022-11-05T05:22:55.385Z,99917.09
2022-11-05T05:25:24.291Z,99958.56
2022-11-05T05:27:53.718Z,99946.97
2022-11-05T05:30:21.679Z,99951.69
2022-11-05T05:32:50.133Z,99955.19
2022-11-05T05:35:18.482Z,99950.69
2022-11-05T05:37:46.654Z,99948.00
2022-11-05T05:40:14.615Z,99946.31
2022-11-05T05:42:43.600Z,99955.03
2022-11-05T05:45:13.612Z,99952.34
2022-11-05T05:47:41.503Z,99956.91
2022-11-05T05:50:09.650Z,99952.34
2022-11-05T05:52:37.619Z,99946.97
2022-11-05T05:55:06.224Z,99952.72
2022-11-05T05:57:35.230Z,99956.06
2022-11-05T06:00:03.425Z,99948.00
2022-11-05T06:02:33.387Z,99954.38
2022-11-05T06:05:01.553Z,99954.38
2022-11-05T06:07:33.132Z,99967.63
2022-11-05T06:10:06.483Z,99961.41
2022-11-05T06:12:34.533Z,99966.78
2022-11-05T06:15:02.528Z,99961.41
2022-11-05T06:17:30.466Z,99962.44
2022-11-05T06:19:59.806Z,99975.53
2022-11-05T06:22:27.755Z,99960.56
2022-11-05T06:24:55.676Z,99966.78
2022-11-05T06:27:23.631Z,99966.78
2022-11-05T06:29:51.567Z,99966.13
2022-11-05T06:32:19.474Z,99965.13
2022-11-05T06:34:47.430Z,99970.50
2022-11-05T06:37:16.752Z,99969.78
2022-11-05T06:39:44.719Z,99974.84
2022-11-05T06:42:18.228Z,99966.78
2022-11-05T06:44:46.636Z,99973.81
2022-11-05T06:47:14.587Z,99978.22
2022-11-05T06:49:42.535Z,99986.28
2022-11-05T06:52:10.470Z,99991.63
2022-11-05T06:54:39.944Z,99984.56
2022-11-05T06:57:09.670Z,99922.38
2022-11-05T06:59:37.771Z,99999.69
2022-11-05T07:02:06.323Z,100000.66
2022-11-05T07:04:34.825Z,100010.44
2022-11-05T07:07:03.261Z,99991.44
2022-11-05T07:09:31.187Z,100009.75
2022-11-05T07:12:00.512Z,100009.75
2022-11-05T07:14:28.460Z,100000.00
2022-11-05T07:16:58.125Z,100009.75
2022-11-05T07:19:26.048Z,99999.84
2022-11-05T07:21:53.985Z,100004.38
2022-11-05T07:24:21.883Z,99999.00
2022-11-05T07:26:49.865Z,100014.09
2022-11-05T07:29:19.175Z,100011.41
2022-11-05T07:31:47.628Z,100015.97
2022-11-05T07:34:15.616Z,100022.16
2022-11-05T07:36:43.617Z,100005.22
2022-11-05T07:39:11.578Z,100020.31
2022-11-05T07:41:39.511Z,100010.44
2022-11-05T07:44:07.561Z,100011.41
2022-11-05T07:46:36.850Z,100013.13
2022-11-05T07:49:05.182Z,100006.03
2022-11-05T07:51:33.158Z,99999.00
2022-11-05T07:54:01.467Z,100009.59
2022-11-05T07:56:29.462Z,100013.13
2022-11-05T07:58:57.454Z,100014.78
2022-11-05T08:01:25.816Z,100014.78
2022-11-05T08:03:55.339Z,100024.69
2022-11-05T08:06:23.361Z,100021.16
2022-11-05T08:08:51.403Z,100032.88
2022-11-05T08:11:20.035Z,100025.00
2022-11-05T08:13:48.011Z,100032.88
2022-11-05T08:16:15.947Z,100041.63
2022-11-05T08:18:44.706Z,100039.97
2022-11-05T08:21:14.194Z,100039.28
2022-11-05T08:23:43.033Z,100039.97
2022-11-05T08:26:11.621Z,100045.34
2022-11-05T08:28:39.584Z,100045.34
2022-11-05T08:31:07.572Z,100045.34
2022-11-05T08:33:35.566Z,100041.63
2022-11-05T08:36:04.470Z,100034.59
2022-11-05T08:38:33.798Z,100040.78
2022-11-05T08:41:01.781Z,100039.97
2022-11-05T08:43:29.796Z,100038.94
2022-11-05T08:45:57.845Z,100039.09
2022-11-05T08:48:25.831Z,100037.13
2022-11-05T08:50:53.740Z,100040.78
2022-11-05T08:53:21.779Z,100041.63
2022-11-05T08:55:51.650Z,100045.34
2022-11-05T08:58:20.854Z,100039.28
2022-11-05T09:00:50.638Z,100048.84
2022-11-05T09:03:18.807Z,100042.66
2022-11-05T09:05:46.804Z,100048.84
2022-11-05T09:08:16.820Z,100039.97
2022-11-05T09:10:45.461Z,100046.16
2022-11-05T09:13:18.951Z,100045.16
2022-11-05T09:15:48.698Z,100034.59
2022-11-05T09:18:18.130Z,100037.94
2022-11-05T09:20:46.498Z,100037.94
2022-11-05T09:23:15.914Z,100050.53
2022-11-05T09:25:44.040Z,100047.00
2022-11-05T09:28:17.137Z,100048.66
2022-11-05T09:30:47.295Z,100045.34
2022-11-05T09:33:16.269Z,100047.84
2022-11-05T09:35:44.636Z,100052.38
2022-11-05T09:38:12.915Z,100052.38
2022-11-05T09:40:57.133Z,100058.75
2022-11-05T09:43:31.953Z,100050.69
2022-11-05T09:46:05.231Z,100052.38
2022-11-05T09:48:35.265Z,100066.81
2022-11-05T09:51:05.114Z,100065.78
2022-11-05T09:53:33.431Z,100059.22
2022-11-05T09:56:02.172Z,100069.34
2022-11-05T09:58:39.016Z,100063.09
2022-11-05T10:01:12.576Z,100072.19
2022-11-05T10:03:46.877Z,100074.88
2022-11-05T10:06:21.359Z,100074.69
2022-11-05T10:08:53.688Z,100084.59
2022-11-05T10:11:26.739Z,100077.53
2022-11-05T10:13:59.760Z,100079.53
2022-11-05T10:16:31.922Z,100077.53
2022-11-05T10:19:06.540Z,100075.84
2022-11-05T10:22:04.345Z,100084.59
2022-11-05T10:24:23.023Z,100068.09
2022-11-05T10:26:54.010Z,100081.22
2022-11-05T10:29:27.269Z,100082.06
2022-11-05T10:31:57.271Z,100086.59
2022-11-05T10:34:28.716Z,100089.25
2022-11-05T10:36:56.814Z,100090.28
2022-11-05T10:39:27.770Z,100090.28
2022-11-05T10:42:31.689Z,100090.13
2022-11-05T10:45:07.145Z,100092.81
2022-11-05T10:47:53.072Z,100093.97
2022-11-05T10:50:24.540Z,100077.50
2022-11-05T10:52:58.447Z,100101.03
2022-11-05T10:55:29.363Z,100103.53
2022-11-05T10:58:09.847Z,100108.06
2022-11-05T11:00:39.372Z,100112.28
2022-11-05T11:03:28.031Z,100107.09
2022-11-05T11:06:01.361Z,100103.69
2022-11-05T11:08:30.291Z,100109.06
2022-11-05T11:11:03.417Z,100106.38
2022-11-05T11:13:51.064Z,100106.38
2022-11-05T11:16:23.732Z,100108.06
2022-11-05T11:18:55.062Z,100117.13
2022-11-05T11:21:26.378Z,100111.75
2022-11-05T11:23:59.150Z,100110.91
2022-11-05T11:26:29.614Z,100113.59
2022-11-05T11:29:00.407Z,100113.44
2022-11-05T11:31:31.801Z,100120.81
2022-11-05T11:34:03.562Z,100121.66
2022-11-05T11:36:37.183Z,100125.19
2022-11-05T11:39:07.884Z,100128.88
2022-11-05T11:41:38.841Z,100127.88
2022-11-05T11:44:13.370Z,100134.09
2022-11-05T11:46:42.965Z,100129.53
2022-11-05T11:49:31.587Z,100127.88
2022-11-05T11:52:05.320Z,100128.19
2022-11-05T11:54:35.933Z,100131.56
2022-11-05T11:57:04.415Z,100137.59
2022-11-05T12:00:06.596Z,100127.88
2022-11-05T12:02:48.347Z,100131.56
2022-11-05T12:05:30.956Z,100136.94
2022-11-05T12:08:09.039Z,100129.88
2022-11-05T12:10:48.957Z,100141.44
2022-11-05T12:13:43.103Z,100130.72
2022-11-05T12:16:18.470Z,100140.63
2022-11-05T12:18:53.602Z,100147.66
2022-11-05T12:21:50.944Z,100142.31
2022-11-05T12:24:42.123Z,100142.31
2022-11-05T12:27:24.448Z,100137.94
2022-11-05T12:30:00.861Z,100064.81
2022-11-05T12:32:48.639Z,100147.66
2022-11-05T12:35:34.527Z,100147.66
2022-11-05T12:38:09.421Z,100144.28
2022-11-05T12:40:48.653Z,100146.31
2022-11-05T12:43:27.264Z,100146.97
2022-11-05T12:46:02.845Z,100156.72
2022-11-05T12:48:53.180Z,100148.84
2022-11-05T12:51:35.284Z,100145.13
2022-11-05T12:54:15.959Z,100143.47
2022-11-05T12:56:48.092Z,100139.94
2022-11-05T12:59:22.237Z,100147.97
2022-11-05T13:01:54.509Z,100145.31
2022-11-05T13:04:34.028Z,100133.56
2022-11-05T13:07:08.942Z,100140.63
2022-11-05T13:09:42.778Z,100146.00
2022-11-05T13:12:14.333Z,100146.81
2022-11-05T13:14:46.727Z,100153.03
2022-11-05T13:17:17.736Z,100145.13
2022-11-05T13:19:51.879Z,100153.03
2022-11-05T13:22:34.409Z,100146.63
2022-11-05T13:25:10.734Z,100144.28
2022-11-05T13:27:50.042Z,100162.09
2022-11-05T13:30:21.103Z,100155.88
2022-11-05T13:32:54.964Z,100158.41
2022-11-05T13:35:27.459Z,100162.09
2022-11-05T13:38:18.063Z,100160.41
2022-11-05T13:41:01.915Z,100162.94
2022-11-05T13:43:44.505Z,100160.41
2022-11-05T13:46:32.725Z,100164.09
2022-11-05T13:49:16.608Z,100155.03
2022-11-05T13:51:50.639Z,100155.03
2022-11-05T13:54:58.293Z,100153.34
2022-11-05T13:57:46.656Z,100151.84
2022-11-05T14:00:19.468Z,100159.72
2022-11-05T14:02:51.638Z,100155.34
2022-11-05T14:05:30.809Z,100153.34
2022-11-05T14:08:01.690Z,100155.88
2022-11-05T14:10:37.688Z,100161.25
2022-11-05T14:13:19.211Z,100159.72
2022-11-05T14:15:58.666Z,100158.56
2022-11-05T14:18:39.279Z,100157.72
2022-11-05T14:21:27.981Z,100163.94
2022-11-05T14:23:57.842Z,100160.41
2022-11-05T14:26:28.793Z,100163.94
2022-11-05T14:29:38.172Z,100164.09
2022-11-05T14:32:24.845Z,100139.03
2022-11-05T14:34:57.402Z,100165.94
2022-11-05T14:37:28.670Z,100162.41
2022-11-05T14:39:57.600Z,100155.34
2022-11-05T14:42:31.758Z,100162.41
2022-11-05T14:45:21.292Z,100157.06
2022-11-05T14:47:56.340Z,100167.78
2022-11-05T14:50:32.322Z,100173.16
2022-11-05T14:53:08.035Z,100172.16
2022-11-05T14:55:40.365Z,100165.75
2022-11-05T14:58:28.824Z,100164.09
2022-11-05T15:00:58.009Z,100170.47
2022-11-05T15:03:37.687Z,100170.47
2022-11-05T15:06:31.234Z,100174.81
2022-11-05T15:09:24.204Z,100174.81
2022-11-05T15:12:11.067Z,100173.47
2022-11-05T15:14:50.294Z,100176.81
2022-11-05T15:17:23.079Z,100167.78
2022-11-05T15:19:52.354Z,100177.50
2022-11-05T15:22:30.550Z,100183.91
2022-11-05T15:24:59.429Z,100186.56
2022-11-05T15:27:47.053Z,100194.63
2022-11-05T15:30:22.354Z,100194.63
2022-11-05T15:32:50.745Z,100199.00
2022-11-05T15:35:26.926Z,100200.81
2022-11-05T15:38:01.719Z,100199.00
2022-11-05T15:40:32.956Z,100191.78
2022-11-05T15:43:19.879Z,100199.00
2022-11-05T15:46:07.288Z,100198.13
2022-11-05T15:48:36.851Z,100200.00
2022-11-05T15:51:05.143Z,100191.56
2022-11-05T15:54:08.301Z,100202.53
2022-11-05T15:56:30.055Z,100197.16
2022-11-05T15:59:01.953Z,100191.78
2022-11-05T16:01:34.403Z,100203.34
2022-11-05T16:04:12.512Z,100198.13
2022-11-05T16:06:45.817Z,100199.00
2022-11-05T16:09:23.803Z,100204.19
2022-11-05T16:12:12.341Z,100197.97
2022-11-05T16:14:40.327Z,100195.28
2022-11-05T16:17:22.840Z,100199.69
2022-11-05T16:19:52.218Z,100196.31
2022-11-05T16:22:20.590Z,100205.38
2022-11-05T16:24:49.370Z,100173.03
2022-11-05T16:27:20.010Z,100208.72
2022-11-05T16:29:51.501Z,100215.78
2022-11-05T16:32:29.681Z,100210.44
2022-11-05T16:35:00.587Z,100173.88
2022-11-05T16:37:30.996Z,100211.25
2022-11-05T16:39:59.035Z,100212.09
2022-11-05T16:42:40.996Z,100205.88
2022-11-05T16:45:11.894Z,100212.09
2022-11-05T16:47:41.221Z,100213.78
2022-11-05T16:50:22.708Z,100219.16
2022-11-05T16:52:50.891Z,100209.41
2022-11-05T16:55:20.138Z,100197.25
2022-11-05T16:57:50.892Z,100202.00
2022-11-05T17:00:20.851Z,100213.78
2022-11-05T17:02:50.457Z,100217.47
2022-11-05T17:05:21.786Z,100217.78
2022-11-05T17:07:49.924Z,100220.97
2022-11-05T17:10:19.062Z,100221.81
2022-11-05T17:12:47.645Z,100217.47
2022-11-05T17:15:19.403Z,100219.16
2022-11-05T17:17:49.715Z,100217.47
2022-11-05T17:20:27.577Z,100222.84
2022-11-05T17:22:55.910Z,100196.88
2022-11-05T17:25:24.328Z,100218.47
2022-11-05T17:27:52.357Z,100218.47
2022-11-05T17:30:20.763Z,100235.25
2022-11-05T17:32:50.374Z,100229.88
2022-11-05T17:35:19.232Z,100225.53
2022-11-05T17:37:47.136Z,100223.16
2022-11-05T17:40:18.816Z,100226.53
2022-11-05T17:42:47.373Z,100229.22
2022-11-05T17:45:16.072Z,100233.56
2022-11-05T17:47:44.142Z,100238.94
2022-11-05T17:50:18.761Z,100227.19
2022-11-05T17:52:46.958Z,100228.22
2022-11-05T17:55:17.714Z,100219.47
2022-11-05T17:57:47.101Z,100216.63
2022-11-05T18:00:17.336Z,100222.59
2022-11-05T18:02:46.212Z,100233.56
2022-11-05T18:05:15.763Z,100228.22
2022-11-05T18:07:44.394Z,100224.81
2022-11-05T18:10:12.643Z,100221.47
2022-11-05T18:12:41.578Z,100232.72
2022-11-05T18:15:10.196Z,100239.97
2022-11-05T18:17:38.335Z,100238.94
2022-11-05T18:20:10.714Z,100244.31
2022-11-05T18:22:43.748Z,100240.78
2022-11-05T18:25:13.170Z,100238.09
2022-11-05T18:27:42.034Z,100231.22
2022-11-05T18:30:14.106Z,100237.28
2022-11-05T18:32:42.422Z,100235.56
2022-11-05T18:35:10.777Z,100236.25
2022-11-05T18:37:39.752Z,100228.22
2022-11-05T18:40:10.244Z,100219.47
2022-11-05T18:42:38.271Z,100225.88
2022-11-05T18:45:07.320Z,100230.94
2022-11-05T18:47:35.468Z,100229.25
2022-11-05T18:50:04.212Z,100236.47
2022-11-05T18:52:33.817Z,100238.00
2022-11-05T18:55:01.770Z,100232.94
2022-11-05T18:57:31.197Z,100240.31
2022-11-05T18:59:59.141Z,100240.31
2022-11-05T19:02:27.234Z,100241.00
2022-11-05T19:05:26.960Z,100235.78
2022-11-05T19:07:43.219Z,100228.88
2022-11-05T19:10:11.212Z,100245.69
2022-11-05T19:12:40.595Z,100240.16
2022-11-05T19:15:09.715Z,100244.00
2022-11-05T19:17:37.813Z,100249.88
2022-11-05T19:20:07.363Z,100215.34
2022-11-05T19:22:35.335Z,100249.06
2022-11-05T19:25:03.365Z,100242.69
2022-11-05T19:27:31.305Z,100243.69
2022-11-05T19:30:00.591Z,100242.69
2022-11-05T19:32:28.544Z,100250.75
2022-11-05T19:34:56.515Z,100254.28
2022-11-05T19:37:24.426Z,100245.38
2022-11-05T19:39:52.415Z,100251.59
2022-11-05T19:42:20.363Z,100253.41
2022-11-05T19:44:48.247Z,100252.41
2022-11-05T19:47:17.661Z,100242.84
2022-11-05T19:49:45.571Z,100245.38
2022-11-05T19:52:13.559Z,100248.91
2022-11-05T19:54:41.717Z,100249.06
2022-11-05T19:57:09.627Z,100238.31
2022-11-05T19:59:37.587Z,100245.69
2022-11-05T20:02:11.941Z,100249.06
2022-11-05T20:04:45.341Z,100250.75
2022-11-05T20:07:13.240Z,100252.72
2022-11-05T20:09:41.405Z,100258.09
2022-11-05T20:12:09.380Z,100258.09
2022-11-05T20:14:37.345Z,100252.72
2022-11-05T20:17:05.383Z,100255.72
2022-11-05T20:19:33.697Z,100264.31
2022-11-05T20:22:03.208Z,100265.19
2022-11-05T20:24:31.567Z,100274.19
2022-11-05T20:26:59.604Z,100270.53
2022-11-05T20:29:33.815Z,100252.72
2022-11-05T20:32:03.822Z,100265.19
2022-11-05T20:34:32.885Z,100262.63
2022-11-05T20:37:02.670Z,100272.53
2022-11-05T20:39:30.729Z,100263.47
2022-11-05T20:42:00.616Z,100262.50
2022-11-05T20:44:28.919Z,100267.00
2022-11-05T20:46:56.939Z,100265.19
2022-11-05T20:49:25.821Z,100252.72
2022-11-05T20:51:54.203Z,100262.50
2022-11-05T20:54:23.805Z,100253.75
2022-11-05T20:56:51.723Z,100255.25
2022-11-05T20:59:19.864Z,100259.81
2022-11-05T21:01:48.120Z,100268.84
2022-11-05T21:04:16.213Z,100259.81
2022-11-05T21:06:44.712Z,100275.91
2022-11-05T21:09:14.138Z,100266.31
2022-11-05T21:12:01.987Z,100275.91
2022-11-05T21:14:29.988Z,100265.19
2022-11-05T21:16:57.970Z,100263.47
2022-11-05T21:19:26.928Z,100275.91
2022-11-05T21:21:54.871Z,100270.53
2022-11-05T21:24:22.852Z,100264.16
2022-11-05T21:26:54.510Z,100274.19
2022-11-05T21:29:22.488Z,100265.19
2022-11-05T21:31:50.463Z,100260.63
2022-11-05T21:34:20.343Z,100261.47
2022-11-05T21:36:48.367Z,100249.38
2022-11-05T21:39:16.345Z,100262.34
2022-11-05T21:41:44.386Z,100254.13
2022-11-05T21:44:13.738Z,100244.50
2022-11-05T21:46:41.661Z,100253.25
2022-11-05T21:49:09.583Z,100253.13
2022-11-05T21:51:54.930Z,100266.53
2022-11-05T21:54:40.179Z,100255.25
2022-11-05T21:57:31.768Z,100254.13
2022-11-05T22:00:01.827Z,100248.91
2022-11-05T22:02:30.706Z,100244.34
2022-11-05T22:05:00.187Z,100238.31
2022-11-05T22:07:30.706Z,100247.03
2022-11-05T22:09:58.839Z,100256.81
2022-11-05T22:12:27.552Z,100237.28
2022-11-05T22:14:56.068Z,100218.41
2022-11-05T22:17:26.388Z,100252.41
2022-11-05T22:19:54.311Z,100255.78
2022-11-05T22:22:22.551Z,100248.75
2022-11-05T22:24:50.752Z,100188.06
2022-11-05T22:27:21.997Z,100246.72
2022-11-05T22:29:50.345Z,100249.41
2022-11-05T22:32:18.728Z,100242.69
2022-11-05T22:34:49.107Z,100245.38
2022-11-05T22:37:17.084Z,100248.75
2022-11-05T22:39:46.365Z,100240.00
2022-11-05T22:42:14.679Z,100238.00
2022-11-05T22:44:44.233Z,100246.06
2022-11-05T22:47:15.087Z,100240.00
2022-11-05T22:49:43.035Z,100230.13
2022-11-05T22:52:12.413Z,100237.69
2022-11-05T22:54:40.399Z,100230.44
2022-11-05T22:57:08.671Z,100235.63
2022-11-05T22:59:36.695Z,100237.63
2022-11-05T23:02:09.517Z,100238.31
2022-11-05T23:04:38.663Z,100235.47
2022-11-05T23:07:27.706Z,100226.88
2022-11-05T23:10:15.012Z,100234.63
2022-11-05T23:12:44.704Z,100239.16
2022-11-05T23:15:33.443Z,100227.28
2022-11-05T23:18:18.802Z,100232.94
2022-11-05T23:21:04.198Z,100225.88
2022-11-05T23:23:51.854Z,100229.25
2022-11-05T23:26:38.518Z,100222.53
2022-11-05T23:29:06.594Z,100221.81
2022-11-05T23:31:53.516Z,100216.16
2022-11-05T23:34:21.439Z,100219.69
2022-11-05T23:37:06.662Z,100210.09
2022-11-05T23:39:39.648Z,100211.78
2022-11-05T23:42:29.573Z,100210.94
2022-11-05T23:45:15.106Z,100220.81
2022-11-05T23:48:01.137Z,100225.56
2022-11-05T23:50:29.165Z,100214.81
2022-11-05T23:52:57.102Z,100217.34
2022-11-05T23:55:25.860Z,100209.13
2022-11-05T23:57:55.193Z,100219.88
